createdAt,value
2018-03-07T00:01:35.426Z,93409.84
2018-03-07T00:04:02.890Z,93401.88
2018-03-07T00:06:30.231Z,93415.88
2018-03-07T00:08:57.583Z,93429.38
2018-03-07T00:11:24.925Z,93421.61
2018-03-07T00:13:52.301Z,93413.73
2018-03-07T00:16:19.644Z,93418.17
2018-03-07T00:18:47.002Z,93409.89
2018-03-07T00:21:14.355Z,93397.10
2018-03-07T00:23:41.736Z,93413.27
2018-03-07T00:26:09.119Z,93417.77
2018-03-07T00:28:36.504Z,93390.75
2018-03-07T00:31:03.874Z,93414.75
2018-03-07T00:33:31.215Z,93399.96
2018-03-07T00:35:58.563Z,93402.59
2018-03-07T00:38:25.935Z,93435.27
2018-03-07T00:40:53.270Z,93403.18
2018-03-07T00:43:20.647Z,93404.82
2018-03-07T00:45:47.998Z,93428.73
2018-03-07T00:48:15.387Z,93418.06
2018-03-07T00:50:42.726Z,93412.52
2018-03-07T00:53:10.064Z,93398.22
2018-03-07T00:55:37.399Z,93423.48
2018-03-07T00:58:04.786Z,93404.02
2018-03-07T01:00:32.180Z,93409.23
2018-03-07T01:02:59.520Z,93402.52
2018-03-07T01:05:26.925Z,93424.30
2018-03-07T01:07:54.295Z,93423.89
2018-03-07T01:10:21.678Z,93426.28
2018-03-07T01:12:49.021Z,93419.30
2018-03-07T01:15:16.363Z,93413.27
2018-03-07T01:17:43.703Z,93422.91
2018-03-07T01:20:11.064Z,93407.32
2018-03-07T01:22:38.405Z,93427.39
2018-03-07T01:25:05.779Z,93418.64
2018-03-07T01:27:33.166Z,93409.95
2018-03-07T01:30:00.528Z,93419.18
2018-03-07T01:32:27.934Z,93407.39
2018-03-07T01:34:55.271Z,93385.42
2018-03-07T01:37:22.618Z,93405.24
2018-03-07T01:39:49.988Z,93378.41
2018-03-07T01:42:17.360Z,93400.71
2018-03-07T01:44:44.734Z,93404.30
2018-03-07T01:47:12.080Z,93399.98
2018-03-07T01:49:39.507Z,93409.84
2018-03-07T01:52:06.902Z,93408.96
2018-03-07T01:54:34.237Z,93401.33
2018-03-07T01:57:01.610Z,93380.55
2018-03-07T01:59:29.008Z,93408.00
2018-03-07T02:01:56.572Z,93406.66
2018-03-07T02:04:23.991Z,93423.55
2018-03-07T02:06:51.335Z,93417.45
2018-03-07T02:09:18.848Z,93404.22
2018-03-07T02:11:46.207Z,93396.66
2018-03-07T02:14:13.655Z,93409.22
2018-03-07T02:16:41.825Z,93405.65
2018-03-07T02:19:09.189Z,93399.13
2018-03-07T02:21:37.202Z,93418.09
2018-03-07T02:24:04.590Z,93434.84
2018-03-07T02:26:31.993Z,93427.66
2018-03-07T02:28:59.454Z,93420.25
2018-03-07T02:31:26.796Z,93426.34
2018-03-07T02:33:56.121Z,93408.30
2018-03-07T02:36:23.482Z,93398.66
2018-03-07T02:38:51.649Z,93427.79
2018-03-07T02:41:19.031Z,93418.67
2018-03-07T02:43:47.194Z,93435.33
2018-03-07T02:46:14.552Z,93413.78
2018-03-07T02:48:42.052Z,93407.23
2018-03-07T02:51:09.432Z,93421.76
2018-03-07T02:53:36.896Z,93420.72
2018-03-07T02:56:04.275Z,93425.38
2018-03-07T02:58:31.698Z,93445.91
2018-03-07T03:00:59.659Z,93448.72
2018-03-07T03:03:27.099Z,93431.52
2018-03-07T03:05:54.501Z,93434.53
2018-03-07T03:08:21.885Z,93431.05
2018-03-07T03:10:49.277Z,93436.93
2018-03-07T03:13:16.614Z,93437.74
2018-03-07T03:15:44.008Z,93444.98
2018-03-07T03:18:11.358Z,93429.45
2018-03-07T03:20:38.739Z,93432.69
2018-03-07T03:23:06.110Z,93458.81
2018-03-07T03:25:33.487Z,93457.75
2018-03-07T03:28:00.821Z,93478.56
2018-03-07T03:30:28.260Z,93477.24
2018-03-07T03:32:55.655Z,93442.98
2018-03-07T03:35:23.095Z,93448.09
2018-03-07T03:37:50.493Z,93434.42
2018-03-07T03:40:17.843Z,93416.17
2018-03-07T03:42:45.238Z,93439.51
2018-03-07T03:45:12.579Z,93454.00
2018-03-07T03:47:39.951Z,93445.16
2018-03-07T03:50:07.298Z,93427.58
2018-03-07T03:52:34.697Z,93434.36
2018-03-07T03:55:02.073Z,93439.08
2018-03-07T03:57:29.415Z,93436.80
2018-03-07T03:59:56.794Z,93442.99
2018-03-07T04:02:24.281Z,93445.97
2018-03-07T04:04:51.658Z,93472.44
2018-03-07T04:07:19.034Z,93471.09
2018-03-07T04:09:46.395Z,93472.09
2018-03-07T04:12:13.793Z,93504.00
2018-03-07T04:14:41.166Z,93466.20
2018-03-07T04:17:08.501Z,93455.55
2018-03-07T04:19:35.950Z,93463.59
2018-03-07T04:22:03.300Z,93475.66
2018-03-07T04:24:30.726Z,93479.55
2018-03-07T04:26:58.098Z,93466.55
2018-03-07T04:29:25.578Z,93482.41
2018-03-07T04:31:52.942Z,93473.66
2018-03-07T04:34:20.282Z,93483.17
2018-03-07T04:36:47.642Z,93504.17
2018-03-07T04:39:14.998Z,93480.19
2018-03-07T04:41:42.349Z,93466.55
2018-03-07T04:44:09.724Z,93487.95
2018-03-07T04:46:37.166Z,93520.23
2018-03-07T04:49:04.506Z,93505.07
2018-03-07T04:51:36.002Z,93479.38
2018-03-07T04:54:03.342Z,93491.92
2018-03-07T04:56:30.682Z,93487.91
2018-03-07T04:58:58.101Z,93495.83
2018-03-07T05:01:25.447Z,93477.09
2018-03-07T05:03:52.809Z,93483.23
2018-03-07T05:06:20.162Z,93503.42
2018-03-07T05:08:47.555Z,93495.24
2018-03-07T05:11:14.937Z,93486.25
2018-03-07T05:13:42.321Z,93487.29
2018-03-07T05:16:09.671Z,93502.66
2018-03-07T05:18:37.054Z,93490.59
2018-03-07T05:21:04.399Z,93509.26
2018-03-07T05:23:31.774Z,93510.88
2018-03-07T05:25:59.174Z,93493.46
2018-03-07T05:28:26.543Z,93508.80
2018-03-07T05:30:53.922Z,93483.83
2018-03-07T05:33:21.262Z,93501.20
2018-03-07T05:35:48.604Z,93496.08
2018-03-07T05:38:16.010Z,93502.00
2018-03-07T05:40:43.399Z,93499.88
2018-03-07T05:43:10.802Z,93501.35
2018-03-07T05:45:38.175Z,93493.53
2018-03-07T05:48:05.526Z,93481.80
2018-03-07T05:50:32.875Z,93492.80
2018-03-07T05:53:00.225Z,93508.00
2018-03-07T05:55:27.567Z,93507.80
2018-03-07T05:57:54.906Z,93507.05
2018-03-07T06:00:22.484Z,93495.27
2018-03-07T06:02:49.859Z,93482.41
2018-03-07T06:05:17.234Z,93510.22
2018-03-07T06:07:44.574Z,93513.88
2018-03-07T06:10:11.919Z,93513.30
2018-03-07T06:12:39.292Z,93494.04
2018-03-07T06:15:06.681Z,93506.81
2018-03-07T06:17:34.048Z,93486.80
2018-03-07T06:20:01.522Z,93509.86
2018-03-07T06:22:28.908Z,93521.42
2018-03-07T06:24:56.290Z,93530.27
2018-03-07T06:27:23.701Z,93518.58
2018-03-07T06:29:51.948Z,93524.60
2018-03-07T06:32:19.305Z,93517.67
2018-03-07T06:34:46.690Z,93518.11
2018-03-07T06:37:14.107Z,93513.17
2018-03-07T06:39:41.450Z,93529.94
2018-03-07T06:42:08.811Z,93523.83
2018-03-07T06:44:36.214Z,93486.13
2018-03-07T06:47:03.567Z,93526.56
2018-03-07T06:49:31.932Z,93519.09
2018-03-07T06:51:59.368Z,93535.53
2018-03-07T06:54:26.862Z,93541.33
2018-03-07T06:56:54.477Z,93549.84
2018-03-07T06:59:21.864Z,93562.23
2018-03-07T07:01:49.272Z,93554.50
2018-03-07T07:04:16.660Z,93585.70
2018-03-07T07:06:44.033Z,93592.75
2018-03-07T07:09:11.459Z,93582.34
2018-03-07T07:11:39.078Z,93582.98
2018-03-07T07:14:06.547Z,93589.36
2018-03-07T07:16:33.968Z,93581.28
2018-03-07T07:19:01.378Z,93619.73
2018-03-07T07:21:28.870Z,93636.58
2018-03-07T07:23:56.270Z,93613.77
2018-03-07T07:26:24.137Z,93618.45
2018-03-07T07:28:51.582Z,93615.78
2018-03-07T07:31:18.943Z,93609.73
2018-03-07T07:33:46.489Z,93615.77
2018-03-07T07:36:13.875Z,93619.40
2018-03-07T07:38:41.292Z,93629.52
2018-03-07T07:41:08.719Z,93620.16
2018-03-07T07:43:36.156Z,93642.81
2018-03-07T07:46:04.006Z,93636.60
2018-03-07T07:48:31.483Z,93647.67
2018-03-07T07:50:58.894Z,93632.00
2018-03-07T07:53:26.610Z,93609.03
2018-03-07T07:55:53.971Z,93639.05
2018-03-07T07:58:21.516Z,93632.59
2018-03-07T08:00:49.012Z,93652.37
2018-03-07T08:03:16.378Z,93651.88
2018-03-07T08:05:43.857Z,93645.91
2018-03-07T08:08:11.563Z,93641.80
2018-03-07T08:10:38.947Z,93629.93
2018-03-07T08:13:06.380Z,93639.69
2018-03-07T08:15:33.756Z,93659.37
2018-03-07T08:18:01.253Z,93619.12
2018-03-07T08:20:28.775Z,93649.89
2018-03-07T08:22:56.223Z,93648.91
2018-03-07T08:25:23.646Z,93662.16
2018-03-07T08:27:51.185Z,93638.91
2018-03-07T08:30:19.177Z,93640.73
2018-03-07T08:32:46.675Z,93635.98
2018-03-07T08:35:14.150Z,93639.94
2018-03-07T08:37:41.515Z,93645.17
2018-03-07T08:40:08.921Z,93641.47
2018-03-07T08:42:36.331Z,93647.86
2018-03-07T08:45:03.790Z,93631.88
2018-03-07T08:47:31.226Z,93644.86
2018-03-07T08:49:58.725Z,93607.98
2018-03-07T08:52:26.172Z,93636.72
2018-03-07T08:54:53.597Z,93647.37
2018-03-07T08:57:21.065Z,93647.84
2018-03-07T08:59:48.516Z,93635.19
2018-03-07T09:02:15.949Z,93637.45
2018-03-07T09:04:43.379Z,93629.04
2018-03-07T09:07:10.744Z,93646.38
2018-03-07T09:09:38.180Z,93638.84
2018-03-07T09:12:05.545Z,93645.25
2018-03-07T09:14:32.954Z,93652.69
2018-03-07T09:17:00.814Z,93625.91
2018-03-07T09:19:28.249Z,93647.19
2018-03-07T09:21:55.677Z,93654.74
2018-03-07T09:24:23.076Z,93640.59
2018-03-07T09:26:50.475Z,93628.65
2018-03-07T09:29:17.966Z,93624.13
2018-03-07T09:31:45.364Z,93648.58
2018-03-07T09:34:12.821Z,93652.56
2018-03-07T09:36:40.218Z,93660.45
2018-03-07T09:39:07.595Z,93678.62
2018-03-07T09:41:35.069Z,93682.09
2018-03-07T09:44:02.516Z,93684.98
2018-03-07T09:46:29.872Z,93676.91
2018-03-07T09:48:57.281Z,93669.88
2018-03-07T09:51:24.655Z,93666.16
2018-03-07T09:53:52.038Z,93645.17
2018-03-07T09:56:19.486Z,93668.17
2018-03-07T09:58:46.807Z,93678.09
2018-03-07T10:01:14.611Z,93663.33
2018-03-07T10:03:42.077Z,93674.18
2018-03-07T10:06:09.843Z,93670.67
2018-03-07T10:08:37.384Z,93666.97
2018-03-07T10:11:04.968Z,93662.75
2018-03-07T10:13:32.382Z,93667.53
2018-03-07T10:16:00.117Z,93663.36
2018-03-07T10:18:27.540Z,93659.81
2018-03-07T10:20:54.962Z,93666.20
2018-03-07T10:23:22.471Z,93664.48
2018-03-07T10:25:49.862Z,93668.55
2018-03-07T10:28:17.234Z,93635.98
2018-03-07T10:30:44.642Z,93643.28
2018-03-07T10:33:12.212Z,93661.82
2018-03-07T10:35:39.635Z,93673.70
2018-03-07T10:38:07.181Z,93675.59
2018-03-07T10:40:34.560Z,93700.00
2018-03-07T10:43:02.238Z,93693.71
2018-03-07T10:45:29.643Z,93702.34
2018-03-07T10:47:57.289Z,93671.40
2018-03-07T10:50:24.951Z,93699.75
2018-03-07T10:52:52.603Z,93696.53
2018-03-07T10:55:20.110Z,93709.60
2018-03-07T10:57:47.621Z,93689.13
2018-03-07T11:00:15.081Z,93708.50
2018-03-07T11:02:42.584Z,93687.81
2018-03-07T11:05:09.964Z,93696.22
2018-03-07T11:07:37.429Z,93689.61
2018-03-07T11:10:04.863Z,93687.18
2018-03-07T11:12:32.282Z,93680.09
2018-03-07T11:14:59.679Z,93709.03
2018-03-07T11:17:27.492Z,93685.78
2018-03-07T11:19:55.298Z,93682.98
2018-03-07T11:22:22.786Z,93684.13
2018-03-07T11:24:50.130Z,93701.05
2018-03-07T11:27:17.522Z,93702.42
2018-03-07T11:29:44.960Z,93684.98
2018-03-07T11:32:12.935Z,93684.73
2018-03-07T11:34:40.434Z,93682.34
2018-03-07T11:37:10.772Z,93693.64
2018-03-07T11:39:50.740Z,93642.03
2018-03-07T11:42:18.199Z,93675.30
2018-03-07T11:44:46.115Z,93672.25
2018-03-07T11:47:13.651Z,93669.57
2018-03-07T11:49:40.998Z,93685.56
2018-03-07T11:52:08.363Z,93688.86
2018-03-07T11:54:35.912Z,93686.05
2018-03-07T11:57:03.373Z,93670.94
2018-03-07T11:59:30.984Z,93695.31
2018-03-07T12:01:58.885Z,93684.17
2018-03-07T12:04:26.340Z,93704.59
2018-03-07T12:06:53.851Z,93693.13
2018-03-07T12:09:21.312Z,93701.30
2018-03-07T12:11:48.816Z,93703.22
2018-03-07T12:14:16.843Z,93714.92
2018-03-07T12:16:44.257Z,93710.09
2018-03-07T12:19:12.058Z,93670.16
2018-03-07T12:21:39.490Z,93686.94
2018-03-07T12:24:06.988Z,93669.66
2018-03-07T12:26:34.360Z,93683.05
2018-03-07T12:29:01.858Z,93686.52
2018-03-07T12:31:29.459Z,93685.45
2018-03-07T12:33:56.954Z,93690.72
2018-03-07T12:36:24.419Z,93697.26
2018-03-07T12:38:51.897Z,93688.11
2018-03-07T12:41:19.488Z,93687.15
2018-03-07T12:43:46.991Z,93670.27
2018-03-07T12:46:14.447Z,93687.96
2018-03-07T12:48:41.843Z,93701.52
2018-03-07T12:51:09.411Z,93688.19
2018-03-07T12:53:36.888Z,93680.38
2018-03-07T12:56:04.992Z,93706.69
2018-03-07T12:58:34.266Z,93698.30
2018-03-07T13:01:01.866Z,93709.27
2018-03-07T13:03:29.322Z,93690.22
2018-03-07T13:05:57.087Z,93701.19
2018-03-07T13:08:30.703Z,93717.91
2018-03-07T13:10:58.113Z,93711.04
2018-03-07T13:13:27.170Z,93699.51
2018-03-07T13:15:54.540Z,93729.70
2018-03-07T13:18:22.266Z,93703.58
2018-03-07T13:20:50.026Z,93713.65
2018-03-07T13:23:17.483Z,93714.55
2018-03-07T13:25:44.928Z,93699.70
2018-03-07T13:28:12.655Z,93712.61
2018-03-07T13:30:40.278Z,93709.78
2018-03-07T13:33:08.358Z,93698.72
2018-03-07T13:35:36.012Z,93710.97
2018-03-07T13:38:03.409Z,93719.14
2018-03-07T13:40:30.862Z,93712.56
2018-03-07T13:42:58.606Z,93717.59
2018-03-07T13:45:26.043Z,93694.64
2018-03-07T13:47:53.783Z,93684.93
2018-03-07T13:50:21.224Z,93704.94
2018-03-07T13:52:48.590Z,93687.32
2018-03-07T13:55:16.003Z,93691.45
2018-03-07T13:57:43.790Z,93681.91
2018-03-07T14:00:11.299Z,93710.53
2018-03-07T14:02:41.076Z,93717.68
2018-03-07T14:05:08.551Z,93690.89
2018-03-07T14:07:36.627Z,93706.48
2018-03-07T14:10:04.278Z,93697.44
2018-03-07T14:12:34.286Z,93697.27
2018-03-07T14:15:01.750Z,93694.00
2018-03-07T14:17:29.379Z,93717.78
2018-03-07T14:19:56.827Z,93703.47
2018-03-07T14:22:24.439Z,93666.39
2018-03-07T14:24:51.963Z,93671.85
2018-03-07T14:27:19.582Z,93692.91
2018-03-07T14:29:47.279Z,93687.27
2018-03-07T14:32:14.894Z,93687.33
2018-03-07T14:34:42.243Z,93681.44
2018-03-07T14:37:10.013Z,93677.90
2018-03-07T14:39:37.522Z,93678.88
2018-03-07T14:42:05.450Z,93704.63
2018-03-07T14:44:32.980Z,93676.20
2018-03-07T14:47:00.738Z,93687.16
2018-03-07T14:49:28.159Z,93695.01
2018-03-07T14:51:56.640Z,93701.06
2018-03-07T14:54:24.405Z,93696.12
2018-03-07T14:56:51.794Z,93717.59
2018-03-07T14:59:19.199Z,93722.61
2018-03-07T15:01:46.652Z,93729.88
2018-03-07T15:04:14.041Z,93714.38
2018-03-07T15:06:42.087Z,93736.09
2018-03-07T15:09:09.633Z,93688.46
2018-03-07T15:11:37.402Z,93759.27
2018-03-07T15:14:04.992Z,93760.00
2018-03-07T15:16:32.465Z,93754.49
2018-03-07T15:18:59.995Z,93775.58
2018-03-07T15:21:27.472Z,93760.56
2018-03-07T15:23:54.900Z,93778.88
2018-03-07T15:26:22.322Z,93775.24
2018-03-07T15:28:50.043Z,93750.27
2018-03-07T15:31:17.552Z,93767.31
2018-03-07T15:33:45.068Z,93771.19
2018-03-07T15:36:12.985Z,93759.64
2018-03-07T15:38:40.493Z,93770.78
2018-03-07T15:41:07.991Z,93779.59
2018-03-07T15:43:37.100Z,93761.74
2018-03-07T15:46:04.629Z,93766.92
2018-03-07T15:48:32.105Z,93768.20
2018-03-07T15:50:59.612Z,93758.91
2018-03-07T15:53:28.314Z,93751.83
2018-03-07T15:55:55.828Z,93770.78
2018-03-07T15:58:23.617Z,93767.09
2018-03-07T16:00:51.014Z,93762.24
2018-03-07T16:03:18.387Z,93771.52
2018-03-07T16:05:45.788Z,93778.14
2018-03-07T16:08:13.303Z,93781.70
2018-03-07T16:10:40.810Z,93769.17
2018-03-07T16:13:08.412Z,93764.49
2018-03-07T16:15:36.028Z,93760.36
2018-03-07T16:18:03.415Z,93768.67
2018-03-07T16:20:30.782Z,93764.07
2018-03-07T16:22:58.178Z,93781.42
2018-03-07T16:25:25.587Z,93776.03
2018-03-07T16:27:52.997Z,93779.98
2018-03-07T16:30:20.399Z,93782.00
2018-03-07T16:32:47.776Z,93796.19
2018-03-07T16:35:15.196Z,93805.33
2018-03-07T16:37:42.590Z,93810.66
2018-03-07T16:40:10.020Z,93802.26
2018-03-07T16:42:37.576Z,93788.59
2018-03-07T16:45:05.229Z,93806.56
2018-03-07T16:47:32.621Z,93823.28
2018-03-07T16:50:00.046Z,93816.34
2018-03-07T16:52:27.441Z,93826.70
2018-03-07T16:54:54.858Z,93832.78
2018-03-07T16:57:22.250Z,93822.19
2018-03-07T16:59:49.639Z,93841.09
2018-03-07T17:02:17.059Z,93842.41
2018-03-07T17:04:44.541Z,93848.25
2018-03-07T17:07:12.081Z,93850.94
2018-03-07T17:09:39.486Z,93853.26
2018-03-07T17:12:06.919Z,93852.86
2018-03-07T17:14:35.197Z,93849.39
2018-03-07T17:17:02.859Z,93869.26
2018-03-07T17:19:30.271Z,93863.08
2018-03-07T17:21:57.638Z,93866.00
2018-03-07T17:24:25.006Z,93879.24
2018-03-07T17:26:52.390Z,93874.18
2018-03-07T17:29:19.797Z,93876.83
2018-03-07T17:31:47.188Z,93875.27
2018-03-07T17:34:14.538Z,93869.23
2018-03-07T17:36:41.933Z,93877.31
2018-03-07T17:39:09.281Z,93880.30
2018-03-07T17:41:36.640Z,93893.53
2018-03-07T17:44:03.995Z,93892.95
2018-03-07T17:46:31.373Z,93904.84
2018-03-07T17:48:58.750Z,93901.10
2018-03-07T17:51:26.181Z,93915.36
2018-03-07T17:53:53.561Z,93914.77
2018-03-07T17:56:20.903Z,93913.66
2018-03-07T17:58:48.278Z,93920.88
2018-03-07T18:01:15.682Z,93912.35
2018-03-07T18:03:43.069Z,93915.31
2018-03-07T18:06:10.424Z,93917.45
2018-03-07T18:08:37.926Z,93914.22
2018-03-07T18:13:38.643Z,93922.73
2018-03-07T18:16:06.070Z,93920.97
2018-03-07T18:18:33.457Z,93924.73
2018-03-07T18:21:00.799Z,93920.16
2018-03-07T18:23:28.218Z,93922.56
2018-03-07T18:25:55.623Z,93921.61
2018-03-07T18:28:22.972Z,93929.11
2018-03-07T18:30:50.389Z,93929.26
2018-03-07T18:33:17.746Z,93926.41
2018-03-07T18:35:45.160Z,93946.52
2018-03-07T18:38:12.506Z,93947.20
2018-03-07T18:40:40.054Z,93949.58
2018-03-07T18:43:07.413Z,93955.34
2018-03-07T18:45:34.815Z,93943.76
2018-03-07T18:48:02.240Z,93944.33
2018-03-07T18:50:29.583Z,93952.64
2018-03-07T18:52:56.958Z,93960.80
2018-03-07T18:55:24.416Z,93959.92
2018-03-07T18:57:51.767Z,93964.15
2018-03-07T19:00:19.160Z,93964.50
2018-03-07T19:02:46.538Z,93966.33
2018-03-07T19:05:13.911Z,93968.79
2018-03-07T19:07:41.295Z,93965.88
2018-03-07T19:10:08.706Z,93971.03
2018-03-07T19:12:36.097Z,93969.78
2018-03-07T19:15:03.444Z,93972.19
2018-03-07T19:17:30.794Z,93969.61
2018-03-07T19:19:58.183Z,93969.73
2018-03-07T19:22:25.529Z,93959.99
2018-03-07T19:24:52.892Z,93975.84
2018-03-07T19:27:20.317Z,93971.30
2018-03-07T19:29:47.726Z,93970.30
2018-03-07T19:32:15.111Z,93962.91
2018-03-07T19:34:42.466Z,93966.55
2018-03-07T19:37:09.822Z,93969.59
2018-03-07T19:39:37.181Z,93973.09
2018-03-07T19:42:04.608Z,93968.01
2018-03-07T19:44:31.995Z,93967.66
2018-03-07T19:46:59.380Z,93969.16
2018-03-07T19:49:26.753Z,93973.37
2018-03-07T19:51:54.177Z,93968.98
2018-03-07T19:54:21.570Z,93971.62
2018-03-07T19:56:48.910Z,93968.92
2018-03-07T19:59:16.250Z,93971.91
2018-03-07T20:01:43.673Z,93969.31
2018-03-07T20:04:11.019Z,93968.03
2018-03-07T20:06:38.421Z,93981.69
2018-03-07T20:09:05.834Z,93981.84
2018-03-07T20:11:33.196Z,93985.23
2018-03-07T20:14:00.569Z,93990.98
2018-03-07T20:16:27.964Z,93985.52
2018-03-07T20:18:55.313Z,93989.86
2018-03-07T20:21:22.690Z,93982.64
2018-03-07T20:23:50.039Z,93985.46
2018-03-07T20:26:17.380Z,93988.37
2018-03-07T20:28:44.729Z,93992.12
2018-03-07T20:31:12.143Z,93992.80
2018-03-07T20:33:39.519Z,94000.34
2018-03-07T20:36:06.924Z,93988.63
2018-03-07T20:38:34.285Z,93990.23
2018-03-07T20:41:01.646Z,93996.02
2018-03-07T20:43:28.999Z,93992.02
2018-03-07T20:45:56.338Z,93989.36
2018-03-07T20:48:23.690Z,94002.81
2018-03-07T20:50:51.061Z,94007.94
2018-03-07T20:53:18.446Z,93998.33
2018-03-07T20:55:45.782Z,94014.08
2018-03-07T20:58:13.132Z,94014.62
2018-03-07T21:00:40.498Z,94010.09
2018-03-07T21:03:07.850Z,94018.98
2018-03-07T21:05:35.263Z,94012.95
2018-03-07T21:08:02.628Z,94018.78
2018-03-07T21:10:29.978Z,94016.88
2018-03-07T21:12:57.319Z,94018.16
2018-03-07T21:15:24.689Z,94004.31
2018-03-07T21:17:52.033Z,93994.36
2018-03-07T21:20:19.415Z,93999.52
2018-03-07T21:22:46.765Z,93991.64
2018-03-07T21:25:14.114Z,93991.70
2018-03-07T21:27:41.455Z,93982.78
2018-03-07T21:30:08.812Z,93981.31
2018-03-07T21:32:36.168Z,93978.52
2018-03-07T21:35:03.659Z,93970.48
2018-03-07T21:37:31.038Z,93969.33
2018-03-07T21:39:58.386Z,93971.68
2018-03-07T21:42:25.726Z,93967.01
2018-03-07T21:44:53.085Z,93964.05
2018-03-07T21:47:20.466Z,93955.39
2018-03-07T21:49:47.818Z,93938.08
2018-03-07T21:52:15.173Z,93943.59
2018-03-07T21:54:42.648Z,93940.75
2018-03-07T21:57:09.987Z,93944.57
2018-03-07T21:59:37.332Z,93942.59
2018-03-07T22:02:04.668Z,93956.02
2018-03-07T22:04:32.094Z,93952.22
2018-03-07T22:06:59.524Z,93954.92
2018-03-07T22:09:26.883Z,93957.20
2018-03-07T22:11:54.242Z,93960.00
2018-03-07T22:14:21.591Z,93952.84
2018-03-07T22:16:48.950Z,93959.65
2018-03-07T22:19:16.351Z,93949.73
2018-03-07T22:21:43.750Z,93958.05
2018-03-07T22:24:11.139Z,93954.78
2018-03-07T22:26:38.500Z,93957.30
2018-03-07T22:29:06.007Z,93958.17
2018-03-07T22:31:33.358Z,93957.17
2018-03-07T22:34:00.758Z,93963.25
2018-03-07T22:36:28.194Z,93961.09
2018-03-07T22:38:55.539Z,93961.98
2018-03-07T22:41:22.895Z,93974.29
2018-03-07T22:43:50.283Z,93979.84
2018-03-07T22:46:17.717Z,93977.39
2018-03-07T22:48:45.126Z,93965.59
2018-03-07T22:51:12.509Z,93961.45
2018-03-07T22:53:39.891Z,93957.75
2018-03-07T22:56:07.252Z,93971.86
2018-03-07T22:58:34.680Z,93966.66
2018-03-07T23:01:02.045Z,93971.20
2018-03-07T23:03:29.443Z,93965.78
2018-03-07T23:05:56.992Z,93959.22
2018-03-07T23:08:24.359Z,93963.61
2018-03-07T23:10:51.708Z,93958.22
2018-03-07T23:13:19.069Z,93954.08
2018-03-07T23:15:46.414Z,93949.87
2018-03-07T23:18:13.881Z,93952.20
2018-03-07T23:20:41.285Z,93950.50
2018-03-07T23:23:08.598Z,93937.30
2018-03-07T23:25:35.963Z,93943.66
2018-03-07T23:28:03.310Z,93953.12
2018-03-07T23:30:30.679Z,93936.91
2018-03-07T23:32:58.030Z,93947.11
2018-03-07T23:35:25.467Z,93935.81
2018-03-07T23:37:52.822Z,93943.53
2018-03-07T23:40:20.161Z,93936.97
2018-03-07T23:42:47.504Z,93947.19
2018-03-07T23:45:14.896Z,93943.47
2018-03-07T23:47:42.271Z,93940.91
2018-03-07T23:50:09.718Z,93929.34
2018-03-07T23:52:37.079Z,93929.14
2018-03-07T23:55:04.425Z,93933.67
2018-03-07T23:57:31.770Z,93935.02
2018-03-07T23:59:59.131Z,93925.53
